createdAt,value
2023-05-11T00:00:00.906Z,37.09
2023-05-11T00:01:00.911Z,37.09
2023-05-11T00:02:00.919Z,37.04
2023-05-11T00:03:01.058Z,37.05
2023-05-11T00:04:01.078Z,37.02
2023-05-11T00:05:00.945Z,37.08
2023-05-11T00:06:00.942Z,37.05
2023-05-11T00:07:00.944Z,37.01
2023-05-11T00:08:00.955Z,37.02
2023-05-11T00:09:00.956Z,37.01
2023-05-11T00:10:00.961Z,36.96
2023-05-11T00:11:01.034Z,36.97
2023-05-11T00:12:00.982Z,36.96
2023-05-11T00:13:01.001Z,36.95
2023-05-11T00:14:01.009Z,36.95
2023-05-11T00:15:01.009Z,36.90
2023-05-11T00:16:01.108Z,36.90
2023-05-11T00:17:01.024Z,36.84
2023-05-11T00:18:01.073Z,36.88
2023-05-11T00:19:01.165Z,36.85
2023-05-11T00:20:01.044Z,36.84
2023-05-11T00:21:01.054Z,36.83
2023-05-11T00:22:01.064Z,36.81
2023-05-11T00:23:01.072Z,36.84
2023-05-11T00:24:01.080Z,36.81
2023-05-11T00:25:01.069Z,36.77
2023-05-11T00:26:01.083Z,36.78
2023-05-11T00:27:01.124Z,36.72
2023-05-11T00:28:01.108Z,36.75
2023-05-11T00:29:01.135Z,36.75
2023-05-11T00:30:01.139Z,36.75
2023-05-11T00:31:01.182Z,36.72
2023-05-11T00:32:01.185Z,36.73
2023-05-11T00:33:01.278Z,36.70
2023-05-11T00:34:01.242Z,36.69
2023-05-11T00:35:01.298Z,36.71
2023-05-11T00:36:01.281Z,36.69
2023-05-11T00:37:01.298Z,36.72
2023-05-11T00:38:01.323Z,36.70
2023-05-11T00:39:01.361Z,36.67
2023-05-11T00:40:01.385Z,36.61
2023-05-11T00:41:01.395Z,36.62
2023-05-11T00:42:01.426Z,36.66
2023-05-11T00:43:01.458Z,36.68
2023-05-11T00:44:01.452Z,36.61
2023-05-11T00:45:01.477Z,36.63
2023-05-11T00:46:01.492Z,36.60
2023-05-11T00:47:01.568Z,36.59
2023-05-11T00:48:01.582Z,36.61
2023-05-11T00:49:01.564Z,36.60
2023-05-11T00:50:01.603Z,36.61
2023-05-11T00:51:01.600Z,36.61
2023-05-11T00:52:01.628Z,36.60
2023-05-11T00:53:01.646Z,36.58
2023-05-11T00:54:01.665Z,36.56
2023-05-11T00:55:01.725Z,36.58
2023-05-11T00:56:01.704Z,36.59
2023-05-11T00:57:01.722Z,36.58
2023-05-11T00:58:01.747Z,36.60
2023-05-11T00:59:01.792Z,36.58
2023-05-11T01:00:01.798Z,36.55
2023-05-11T01:01:01.831Z,36.61
2023-05-11T01:02:01.873Z,36.59
2023-05-11T01:03:01.914Z,36.54
2023-05-11T01:04:01.863Z,36.55
2023-05-11T01:05:01.949Z,36.54
2023-05-11T01:06:01.908Z,36.54
2023-05-11T01:07:01.923Z,36.52
2023-05-11T01:08:01.945Z,36.55
2023-05-11T01:09:01.958Z,36.54
2023-05-11T01:10:01.980Z,36.54
2023-05-11T01:11:02.016Z,36.51
2023-05-11T01:12:02.043Z,36.50
2023-05-11T01:13:02.039Z,36.50
2023-05-11T01:14:02.066Z,36.52
2023-05-11T01:15:02.119Z,36.53
2023-05-11T01:16:02.101Z,36.49
2023-05-11T01:17:02.339Z,36.48
2023-05-11T01:18:02.181Z,36.50
2023-05-11T01:19:02.264Z,36.53
2023-05-11T01:20:02.179Z,36.53
2023-05-11T01:21:02.199Z,36.49
2023-05-11T01:22:02.224Z,36.47
2023-05-11T01:23:02.264Z,36.48
2023-05-11T01:24:02.267Z,36.52
2023-05-11T01:25:02.275Z,36.48
2023-05-11T01:26:02.293Z,36.47
2023-05-11T01:27:02.317Z,36.50
2023-05-11T01:28:02.327Z,36.44
2023-05-11T01:29:02.347Z,36.43
2023-05-11T01:30:02.364Z,36.48
2023-05-11T01:31:02.405Z,36.47
2023-05-11T01:32:02.433Z,36.47
2023-05-11T01:33:02.408Z,36.47
2023-05-11T01:34:02.440Z,36.44
2023-05-11T01:35:02.458Z,36.49
2023-05-11T01:36:02.469Z,36.40
2023-05-11T01:37:02.475Z,36.44
2023-05-11T01:38:02.492Z,36.44
2023-05-11T01:39:02.508Z,36.43
2023-05-11T01:40:02.530Z,36.39
2023-05-11T01:41:02.550Z,36.44
2023-05-11T01:42:02.567Z,36.43
2023-05-11T01:43:02.590Z,36.43
2023-05-11T01:44:02.600Z,36.42
2023-05-11T01:45:02.625Z,36.42
2023-05-11T01:46:02.676Z,36.40
2023-05-11T01:47:02.686Z,36.40
2023-05-11T01:48:02.716Z,36.47
2023-05-11T01:49:02.698Z,36.42
2023-05-11T01:50:02.722Z,36.43
2023-05-11T01:51:02.745Z,36.38
2023-05-11T01:52:02.753Z,36.40
2023-05-11T01:53:02.794Z,36.44
2023-05-11T01:54:02.807Z,36.43
2023-05-11T01:55:02.811Z,36.43
2023-05-11T01:56:02.866Z,36.39
2023-05-11T01:57:02.848Z,36.39
2023-05-11T01:58:02.889Z,36.40
2023-05-11T01:59:02.894Z,36.40
2023-05-11T02:00:02.906Z,36.40
2023-05-11T02:01:03.043Z,36.35
2023-05-11T02:02:02.965Z,36.39
2023-05-11T02:03:03.128Z,36.35
2023-05-11T02:04:03.007Z,36.40
2023-05-11T02:05:02.995Z,36.42
2023-05-11T02:06:03.018Z,36.39
2023-05-11T02:07:03.031Z,36.38
2023-05-11T02:08:03.039Z,36.38
2023-05-11T02:09:03.082Z,36.37
2023-05-11T02:10:03.082Z,36.40
2023-05-11T02:11:03.120Z,36.39
2023-05-11T02:12:03.106Z,36.38
2023-05-11T02:13:03.115Z,36.37
2023-05-11T02:14:03.126Z,36.37
2023-05-11T02:15:03.130Z,36.39
2023-05-11T02:16:03.198Z,36.38
2023-05-11T02:17:03.188Z,36.33
2023-05-11T02:18:03.210Z,36.40
2023-05-11T02:19:03.311Z,36.42
2023-05-11T02:20:03.223Z,36.37
2023-05-11T02:21:03.251Z,36.38
2023-05-11T02:22:03.231Z,36.36
2023-05-11T02:23:03.246Z,36.36
2023-05-11T02:24:03.292Z,36.33
2023-05-11T02:25:03.286Z,36.35
2023-05-11T02:26:03.319Z,36.38
2023-05-11T02:27:03.314Z,36.34
2023-05-11T02:28:03.340Z,36.36
2023-05-11T02:29:03.355Z,36.35
2023-05-11T02:30:03.371Z,36.40
2023-05-11T02:31:03.443Z,36.35
2023-05-11T02:32:03.431Z,36.36
2023-05-11T02:33:03.482Z,36.34
2023-05-11T02:34:03.474Z,36.36
2023-05-11T02:35:03.520Z,36.36
2023-05-11T02:36:03.536Z,36.34
2023-05-11T02:37:03.531Z,36.36
2023-05-11T02:38:03.582Z,36.35
2023-05-11T02:39:03.594Z,36.34
2023-05-11T02:40:03.691Z,36.31
2023-05-11T02:41:03.640Z,36.31
2023-05-11T02:42:03.664Z,36.34
2023-05-11T02:43:03.690Z,36.34
2023-05-11T02:44:03.703Z,36.33
2023-05-11T02:45:03.746Z,36.35
2023-05-11T02:46:03.750Z,36.33
2023-05-11T02:47:03.817Z,36.33
2023-05-11T02:48:03.863Z,36.35
2023-05-11T02:49:03.848Z,36.34
2023-05-11T02:50:03.855Z,36.38
2023-05-11T02:51:03.899Z,36.30
2023-05-11T02:52:03.902Z,36.30
2023-05-11T02:53:03.924Z,36.33
2023-05-11T02:54:03.953Z,36.30
2023-05-11T02:55:04.039Z,36.30
2023-05-11T02:56:04.019Z,36.30
2023-05-11T02:57:04.010Z,36.31
2023-05-11T02:58:04.088Z,36.33
2023-05-11T02:59:04.069Z,36.34
2023-05-11T03:00:04.093Z,36.33
2023-05-11T03:01:04.193Z,36.33
2023-05-11T03:02:04.293Z,36.28
2023-05-11T03:03:04.383Z,36.30
2023-05-11T03:04:04.228Z,36.26
2023-05-11T03:05:04.239Z,36.26
2023-05-11T03:06:04.228Z,36.30
2023-05-11T03:07:04.287Z,36.31
2023-05-11T03:08:04.293Z,36.28
2023-05-11T03:09:04.331Z,36.30
2023-05-11T03:10:04.369Z,36.26
2023-05-11T03:11:04.372Z,36.29
2023-05-11T03:12:04.406Z,36.26
2023-05-11T03:13:04.434Z,36.29
2023-05-11T03:14:04.475Z,36.30
2023-05-11T03:15:04.501Z,36.27
2023-05-11T03:16:04.500Z,36.34
2023-05-11T03:17:04.658Z,36.26
2023-05-11T03:18:04.614Z,36.31
2023-05-11T03:19:04.676Z,36.25
2023-05-11T03:20:04.607Z,36.29
2023-05-11T03:21:04.634Z,36.26
2023-05-11T03:22:04.673Z,36.32
2023-05-11T03:23:04.706Z,36.27
2023-05-11T03:24:04.714Z,36.26
2023-05-11T03:25:04.748Z,36.30
2023-05-11T03:26:04.761Z,36.27
2023-05-11T03:27:04.780Z,36.25
2023-05-11T03:28:04.819Z,36.26
2023-05-11T03:29:04.834Z,36.27
2023-05-11T03:30:04.865Z,36.24
2023-05-11T03:31:04.921Z,36.29
2023-05-11T03:32:04.969Z,36.25
2023-05-11T03:33:05.045Z,36.32
2023-05-11T03:34:04.982Z,36.25
2023-05-11T03:35:05.005Z,36.29
2023-05-11T03:36:05.036Z,36.26
2023-05-11T03:37:05.082Z,36.29
2023-05-11T03:38:05.105Z,36.25
2023-05-11T03:39:05.157Z,36.27
2023-05-11T03:40:05.177Z,36.26
2023-05-11T03:41:05.204Z,36.25
2023-05-11T03:42:05.226Z,36.29
2023-05-11T03:43:05.261Z,36.25
2023-05-11T03:44:05.292Z,36.25
2023-05-11T03:45:05.307Z,36.29
2023-05-11T03:46:05.369Z,36.26
2023-05-11T03:47:05.379Z,36.25
2023-05-11T03:48:05.436Z,36.22
2023-05-11T03:49:05.430Z,36.22
2023-05-11T03:50:05.480Z,36.24
2023-05-11T03:51:05.507Z,36.22
2023-05-11T03:52:05.551Z,36.25
2023-05-11T03:53:05.561Z,36.24
2023-05-11T03:54:05.595Z,36.25
2023-05-11T03:55:05.633Z,36.25
2023-05-11T03:56:05.638Z,36.21
2023-05-11T03:57:05.660Z,36.25
2023-05-11T03:58:05.683Z,36.21
2023-05-11T03:59:05.711Z,36.17
2023-05-11T04:00:05.761Z,36.22
2023-05-11T04:01:05.787Z,36.22
2023-05-11T04:02:05.810Z,36.21
2023-05-11T04:03:05.909Z,36.21
2023-05-11T04:04:05.977Z,36.21
2023-05-11T04:05:05.910Z,36.17
2023-05-11T04:06:05.954Z,36.18
2023-05-11T04:07:05.974Z,36.24
2023-05-11T04:08:06.023Z,36.18
2023-05-11T04:09:06.042Z,36.21
2023-05-11T04:10:06.092Z,36.20
2023-05-11T04:11:06.176Z,36.16
2023-05-11T04:12:06.178Z,36.22
2023-05-11T04:13:06.180Z,36.20
2023-05-11T04:14:06.231Z,36.22
2023-05-11T04:15:06.236Z,36.16
2023-05-11T04:16:06.300Z,36.23
2023-05-11T04:17:06.309Z,36.19
2023-05-11T04:18:06.363Z,36.20
2023-05-11T04:19:06.443Z,36.21
2023-05-11T04:20:06.428Z,36.17
2023-05-11T04:21:06.440Z,36.19
2023-05-11T04:22:06.486Z,36.18
2023-05-11T04:23:07.771Z,36.19
2023-05-11T04:24:06.516Z,36.17
2023-05-11T04:25:06.529Z,36.21
2023-05-11T04:26:06.542Z,36.18
2023-05-11T04:27:06.576Z,36.19
2023-05-11T04:28:06.563Z,36.18
2023-05-11T04:29:06.574Z,36.18
2023-05-11T04:30:06.572Z,36.17
2023-05-11T04:31:06.602Z,36.13
2023-05-11T04:32:06.591Z,36.15
2023-05-11T04:33:06.623Z,36.16
2023-05-11T04:34:06.594Z,36.16
2023-05-11T04:35:06.603Z,36.17
2023-05-11T04:36:06.603Z,36.12
2023-05-11T04:37:06.606Z,36.15
2023-05-11T04:38:06.607Z,36.16
2023-05-11T04:39:07.875Z,36.13
2023-05-11T04:40:06.617Z,36.13
2023-05-11T04:41:06.638Z,36.16
2023-05-11T04:42:06.633Z,36.15
2023-05-11T04:43:06.668Z,36.11
2023-05-11T04:44:06.662Z,36.13
2023-05-11T04:45:06.702Z,36.13
2023-05-11T04:46:06.726Z,36.12
2023-05-11T04:47:06.821Z,36.08
2023-05-11T04:48:06.926Z,36.08
2023-05-11T04:49:06.844Z,36.15
2023-05-11T04:50:06.875Z,36.13
2023-05-11T04:51:06.922Z,36.13
2023-05-11T04:52:06.962Z,36.11
2023-05-11T04:53:07.013Z,36.12
2023-05-11T04:54:07.040Z,36.12
2023-05-11T04:55:07.085Z,36.16
2023-05-11T04:56:07.119Z,36.13
2023-05-11T04:57:07.170Z,36.15
2023-05-11T04:58:07.202Z,36.12
2023-05-11T04:59:07.259Z,36.12
2023-05-11T05:00:07.331Z,36.08
2023-05-11T05:01:07.334Z,36.12
2023-05-11T05:02:07.338Z,36.07
2023-05-11T05:03:07.417Z,36.09
2023-05-11T05:04:07.430Z,36.12
2023-05-11T05:05:07.441Z,36.06
2023-05-11T05:06:07.470Z,36.08
2023-05-11T05:07:07.507Z,36.09
2023-05-11T05:08:07.538Z,36.08
2023-05-11T05:09:07.577Z,36.02
2023-05-11T05:10:07.605Z,36.07
2023-05-11T05:11:07.656Z,35.98
2023-05-11T05:12:07.671Z,35.68
2023-05-11T05:13:07.718Z,35.54
2023-05-11T05:14:07.753Z,35.32
2023-05-11T05:15:07.827Z,35.25
2023-05-11T05:16:07.830Z,35.09
2023-05-11T05:17:07.895Z,34.84
2023-05-11T05:18:07.979Z,34.54
2023-05-11T05:19:07.985Z,34.04
2023-05-11T05:20:08.004Z,33.96
2023-05-11T05:21:08.036Z,34.10
2023-05-11T05:22:08.090Z,34.19
2023-05-11T05:23:08.143Z,34.15
2023-05-11T05:24:08.196Z,34.00
2023-05-11T05:25:08.499Z,33.80
2023-05-11T05:26:08.290Z,33.91
2023-05-11T05:27:08.548Z,33.71
2023-05-11T05:28:09.371Z,33.96
2023-05-11T05:29:08.421Z,33.49
2023-05-11T05:30:08.458Z,33.40
2023-05-11T05:31:15.987Z,33.35
2023-05-11T05:32:08.514Z,33.41
2023-05-11T05:33:08.539Z,33.26
2023-05-11T05:34:08.520Z,33.23
2023-05-11T05:35:16.511Z,33.16
2023-05-11T05:36:08.546Z,33.01
2023-05-11T05:37:08.534Z,33.06
2023-05-11T05:38:08.525Z,32.86
2023-05-11T05:39:08.546Z,33.00
2023-05-11T05:40:09.101Z,32.68
2023-05-11T05:41:08.544Z,32.58
2023-05-11T05:42:08.552Z,32.64
2023-05-11T05:43:09.551Z,32.74
2023-05-11T05:44:08.701Z,32.64
2023-05-11T05:45:09.041Z,32.48
2023-05-11T05:46:08.631Z,32.62
2023-05-11T05:47:08.599Z,32.43
2023-05-11T05:48:09.500Z,32.23
2023-05-11T05:49:08.604Z,32.12
2023-05-11T05:50:08.608Z,32.29
2023-05-11T05:51:24.610Z,32.04
2023-05-11T05:52:08.640Z,31.97
2023-05-11T05:54:16.266Z,31.80
2023-05-11T05:55:08.693Z,31.76
2023-05-11T05:56:17.608Z,31.77
2023-05-11T05:57:13.772Z,31.76
2023-05-11T05:59:11.916Z,31.51
2023-05-11T06:01:11.878Z,31.58
2023-05-11T06:02:24.476Z,31.51
2023-05-11T06:03:08.787Z,31.39
2023-05-11T06:04:40.527Z,31.39
2023-05-11T06:05:08.771Z,31.35
2023-05-11T06:06:12.241Z,31.34
2023-05-11T06:07:09.024Z,31.30
2023-05-11T06:08:11.009Z,31.09
2023-05-11T06:09:24.337Z,31.25
2023-05-11T06:10:16.205Z,31.19
2023-05-11T06:11:25.138Z,31.12
2023-05-11T06:12:11.969Z,31.12
2023-05-11T06:13:08.773Z,31.03
2023-05-11T06:14:08.770Z,31.01
2023-05-11T06:15:08.774Z,31.06
2023-05-11T06:16:24.625Z,31.00
2023-05-11T06:17:08.791Z,30.98
2023-05-11T06:18:08.937Z,30.94
2023-05-11T06:19:08.935Z,30.90
2023-05-11T06:20:08.838Z,30.86
2023-05-11T11:50:06.124Z,29.81
2023-05-11T11:51:07.107Z,29.77
2023-05-11T11:52:07.059Z,29.69
2023-05-11T11:53:07.049Z,29.63
2023-05-11T11:54:07.090Z,29.60
2023-05-11T11:55:07.073Z,29.70
2023-05-11T11:56:07.057Z,29.68
2023-05-11T11:57:07.023Z,29.63
2023-05-11T11:58:07.018Z,29.70
2023-05-11T11:59:07.008Z,29.62
2023-05-11T12:00:07.045Z,29.63
2023-05-11T12:01:07.004Z,29.55
2023-05-11T12:02:07.003Z,29.61
2023-05-11T12:03:07.107Z,29.54
2023-05-11T12:04:07.140Z,29.66
2023-05-11T12:05:07.211Z,29.56
2023-05-11T12:06:07.003Z,29.58
2023-05-11T12:07:06.980Z,29.51
2023-05-11T12:08:07.288Z,29.50
2023-05-11T12:09:07.033Z,29.59
2023-05-11T12:10:07.153Z,29.53
2023-05-11T12:11:05.958Z,29.51
2023-05-11T12:12:06.977Z,29.55
2023-05-11T12:13:07.283Z,29.48
2023-05-11T12:14:06.976Z,29.47
2023-05-11T12:15:07.018Z,29.51
2023-05-11T12:16:07.103Z,29.47
2023-05-11T12:17:07.177Z,29.47
2023-05-11T12:18:07.695Z,29.58
2023-05-11T12:19:07.280Z,29.50
2023-05-11T12:20:07.307Z,29.51
2023-05-11T12:21:07.364Z,29.51
2023-05-11T12:22:07.470Z,29.49
2023-05-11T12:23:07.835Z,29.53
2023-05-11T12:24:07.571Z,29.66
2023-05-11T12:25:07.780Z,29.80
2023-05-11T12:26:07.675Z,29.88
2023-05-11T12:27:07.738Z,29.94
2023-05-11T12:28:07.793Z,30.02
2023-05-11T12:29:11.078Z,30.07
2023-05-11T12:30:07.854Z,30.21
2023-05-11T12:31:07.843Z,30.40
2023-05-11T12:32:07.918Z,31.13
2023-05-11T12:33:08.336Z,31.63
2023-05-11T12:34:07.827Z,31.91
2023-05-11T12:35:07.812Z,32.00
2023-05-11T12:36:07.796Z,32.33
2023-05-11T12:37:07.789Z,32.54
2023-05-11T12:38:08.323Z,32.73
2023-05-11T12:39:07.779Z,32.78
2023-05-11T12:40:07.833Z,32.59
2023-05-11T12:41:07.763Z,32.53
2023-05-11T12:42:10.965Z,32.40
2023-05-11T12:43:07.761Z,32.44
2023-05-11T12:44:07.749Z,32.42
2023-05-11T12:45:07.741Z,32.42
2023-05-11T12:46:07.788Z,32.41
2023-05-11T12:47:07.798Z,32.42
2023-05-11T12:48:07.944Z,32.48
2023-05-11T12:49:07.836Z,32.47
2023-05-11T12:50:07.855Z,32.40
2023-05-11T12:51:07.789Z,32.41
2023-05-11T12:52:07.777Z,32.39
2023-05-11T12:53:07.734Z,32.40
2023-05-11T12:54:07.754Z,32.37
2023-05-11T12:55:07.709Z,32.38
2023-05-11T12:56:07.787Z,32.38
2023-05-11T12:57:07.725Z,32.35
2023-05-11T12:58:07.797Z,32.38
2023-05-11T12:59:07.677Z,32.32
2023-05-11T13:00:07.799Z,32.27
2023-05-11T13:01:07.749Z,32.18
2023-05-11T13:02:07.683Z,32.14
2023-05-11T13:03:07.989Z,32.12
2023-05-11T13:04:07.812Z,32.11
2023-05-11T13:05:07.830Z,32.05
2023-05-11T13:06:07.894Z,32.08
2023-05-11T13:07:07.953Z,32.08
2023-05-11T13:08:08.285Z,32.11
2023-05-11T13:09:08.058Z,31.96
2023-05-11T13:10:08.251Z,31.95
2023-05-11T13:11:08.186Z,31.91
2023-05-11T13:12:08.256Z,31.92
2023-05-11T13:13:08.297Z,31.88
2023-05-11T13:14:08.459Z,31.95
2023-05-11T13:15:08.387Z,31.78
2023-05-11T13:16:08.487Z,31.81
2023-05-11T13:17:08.488Z,31.81
2023-05-11T13:18:08.888Z,31.77
2023-05-11T13:19:08.727Z,31.76
2023-05-11T13:20:08.668Z,31.78
2023-05-11T13:21:08.702Z,31.70
2023-05-11T13:22:08.757Z,31.68
2023-05-11T13:23:08.834Z,31.70
2023-05-11T13:24:08.856Z,31.64
2023-05-11T13:25:08.902Z,31.68
2023-05-11T13:26:08.972Z,31.62
2023-05-11T13:27:09.803Z,31.66
2023-05-11T13:28:09.071Z,31.61
2023-05-11T13:29:10.702Z,31.61
2023-05-11T13:30:09.234Z,31.58
2023-05-11T13:31:09.419Z,31.59
2023-05-11T13:32:09.161Z,31.62
2023-05-11T13:33:09.154Z,31.54
2023-05-11T13:34:09.083Z,31.46
2023-05-11T13:35:09.099Z,31.47
2023-05-11T13:36:09.086Z,31.42
2023-05-11T13:37:09.118Z,31.40
2023-05-11T13:38:09.071Z,31.45
2023-05-11T13:39:09.094Z,31.44
2023-05-11T13:40:09.055Z,31.43
2023-05-11T13:41:09.047Z,31.38
2023-05-11T13:42:09.093Z,31.43
2023-05-11T13:43:09.303Z,31.45
2023-05-11T13:44:09.022Z,31.42
2023-05-11T13:45:09.012Z,31.36
2023-05-11T13:46:08.997Z,31.39
2023-05-11T13:47:09.595Z,31.39
2023-05-11T13:48:09.041Z,31.42
2023-05-11T13:49:08.995Z,31.42
2023-05-11T13:50:08.994Z,31.36
2023-05-11T13:51:08.966Z,31.38
2023-05-11T13:52:08.980Z,31.35
2023-05-11T13:53:10.606Z,31.38
2023-05-11T13:54:08.969Z,31.38
2023-05-11T13:55:08.958Z,31.46
2023-05-11T13:56:08.943Z,31.42
2023-05-11T13:57:08.988Z,31.43
2023-05-11T13:58:09.338Z,31.43
2023-05-11T13:59:08.929Z,31.42
2023-05-11T14:00:08.915Z,31.46
2023-05-11T14:01:08.953Z,31.42
2023-05-11T14:02:09.015Z,31.50
2023-05-11T14:03:09.004Z,31.45
2023-05-11T14:04:08.898Z,31.47
2023-05-11T14:05:08.877Z,31.44
2023-05-11T14:06:08.855Z,31.47
2023-05-11T14:07:08.887Z,31.47
2023-05-11T14:08:08.852Z,31.47
2023-05-11T14:09:08.838Z,31.46
2023-05-11T14:10:09.330Z,31.43
2023-05-11T14:11:09.317Z,31.42
2023-05-11T14:12:08.810Z,31.42
2023-05-11T14:13:08.800Z,31.38
2023-05-11T14:14:08.838Z,31.40
2023-05-11T14:15:08.793Z,31.47
2023-05-11T14:16:08.781Z,31.40
2023-05-11T14:17:08.833Z,31.43
2023-05-11T14:18:08.847Z,31.38
2023-05-11T14:19:08.830Z,31.40
2023-05-11T14:20:08.750Z,31.51
2023-05-11T14:21:08.740Z,31.83
2023-05-11T14:22:08.728Z,31.97
2023-05-11T14:23:08.853Z,31.97
2023-05-11T14:25:07.946Z,32.04
2023-05-11T14:26:08.978Z,32.17
2023-05-11T14:27:09.045Z,32.10
2023-05-11T14:28:09.144Z,32.17
2023-05-11T14:29:09.157Z,32.16
2023-05-11T14:30:09.286Z,32.19
2023-05-11T14:31:09.339Z,32.19
2023-05-11T14:32:09.339Z,32.27
2023-05-11T14:33:09.508Z,32.21
2023-05-11T14:34:09.461Z,32.29
2023-05-11T14:35:09.531Z,32.31
2023-05-11T14:36:09.594Z,32.23
2023-05-11T14:37:09.643Z,32.25
2023-05-11T14:38:09.863Z,32.23
2023-05-11T14:39:09.817Z,32.27
2023-05-11T14:40:09.824Z,32.27
2023-05-11T14:41:09.921Z,32.28
2023-05-11T14:42:09.951Z,32.35
2023-05-11T14:43:10.028Z,32.35
2023-05-11T14:44:10.090Z,32.31
2023-05-11T14:45:10.152Z,32.39
2023-05-11T14:46:10.385Z,32.37
2023-05-11T14:47:10.308Z,32.37
2023-05-11T14:48:10.399Z,32.37
2023-05-11T14:49:10.438Z,32.40
2023-05-11T14:50:10.470Z,32.41
2023-05-11T14:51:10.538Z,32.41
2023-05-11T14:52:10.607Z,32.43
2023-05-11T14:53:10.646Z,32.40
2023-05-11T14:54:10.676Z,32.43
2023-05-11T14:55:10.711Z,32.44
2023-05-11T14:56:10.761Z,32.39
2023-05-11T14:57:10.776Z,32.46
2023-05-11T14:58:10.804Z,32.40
2023-05-11T14:59:10.833Z,32.42
2023-05-11T15:00:10.862Z,32.42
2023-05-11T15:01:10.856Z,32.48
2023-05-11T15:02:10.897Z,32.49
2023-05-11T15:03:11.002Z,32.49
2023-05-11T15:04:10.929Z,32.48
2023-05-11T15:05:10.928Z,32.50
2023-05-11T15:06:10.934Z,32.49
2023-05-11T15:07:10.938Z,32.52
2023-05-11T15:08:21.831Z,32.56
2023-05-11T15:09:11.368Z,32.57
2023-05-11T15:10:10.935Z,32.56
2023-05-11T15:11:10.938Z,32.57
2023-05-11T15:12:10.935Z,32.62
2023-05-11T15:13:10.938Z,32.60
2023-05-11T15:14:10.944Z,32.64
2023-05-11T15:15:10.923Z,32.62
2023-05-11T15:16:10.937Z,32.62
2023-05-11T15:17:10.908Z,32.69
2023-05-11T15:18:10.941Z,32.72
2023-05-11T15:19:10.927Z,32.68
2023-05-11T15:20:10.886Z,32.70
2023-05-11T15:21:10.859Z,32.69
2023-05-11T15:22:10.852Z,32.64
2023-05-11T15:23:10.840Z,32.68
2023-05-11T15:24:11.157Z,32.68
2023-05-11T15:25:10.829Z,32.67
2023-05-11T15:26:10.849Z,32.65
2023-05-11T15:27:10.818Z,32.63
2023-05-11T15:28:10.809Z,32.66
2023-05-11T15:29:10.799Z,32.67
2023-05-11T15:30:10.784Z,32.63
2023-05-11T15:31:10.903Z,32.64
2023-05-11T15:32:10.967Z,32.63
2023-05-11T15:33:10.947Z,32.59
2023-05-11T15:34:10.993Z,32.63
2023-05-11T15:35:11.072Z,32.64
2023-05-11T15:36:11.048Z,32.60
2023-05-11T15:37:11.111Z,32.59
2023-05-11T15:38:11.133Z,32.66
2023-05-11T15:39:11.347Z,32.62
2023-05-11T15:40:11.237Z,32.59
2023-05-11T15:41:11.279Z,32.66
2023-05-11T15:42:11.340Z,32.59
2023-05-11T15:43:11.372Z,32.64
2023-05-11T15:44:11.430Z,32.61
2023-05-11T15:45:11.461Z,32.63
2023-05-11T15:46:11.532Z,32.63
2023-05-11T15:47:11.552Z,32.62
2023-05-11T15:48:11.635Z,32.61
2023-05-11T15:49:11.647Z,32.67
2023-05-11T15:50:11.718Z,32.64
2023-05-11T15:51:11.738Z,32.69
2023-05-11T15:52:11.794Z,32.64
2023-05-11T15:53:11.839Z,32.65
2023-05-11T15:54:11.902Z,32.64
2023-05-11T15:55:11.930Z,32.65
2023-05-11T15:56:11.968Z,32.66
2023-05-11T15:57:12.020Z,32.66
2023-05-11T15:58:12.061Z,32.71
2023-05-11T15:59:12.106Z,32.67
2023-05-11T16:00:12.166Z,32.64
2023-05-11T16:01:12.224Z,32.70
2023-05-11T16:02:12.311Z,32.67
2023-05-11T16:03:12.449Z,32.66
2023-05-11T16:04:12.346Z,32.70
2023-05-11T16:05:12.375Z,32.62
2023-05-11T16:06:12.451Z,32.67
2023-05-11T16:07:12.474Z,32.67
2023-05-11T16:08:12.527Z,32.66
2023-05-11T16:09:12.565Z,32.69
2023-05-11T16:10:12.618Z,32.71
2023-05-11T16:11:12.650Z,32.70
2023-05-11T16:12:12.707Z,32.71
2023-05-11T16:13:12.753Z,32.73
2023-05-11T16:14:12.803Z,32.71
2023-05-11T16:15:12.845Z,32.75
2023-05-11T16:16:13.272Z,32.70
2023-05-11T16:17:13.015Z,32.73
2023-05-11T16:18:13.034Z,32.76
2023-05-11T16:19:13.152Z,32.70
2023-05-11T16:20:13.090Z,32.73
2023-05-11T16:21:13.133Z,32.71
2023-05-11T16:22:13.220Z,32.73
2023-05-11T16:23:13.232Z,32.77
2023-05-11T16:24:13.275Z,32.71
2023-05-11T16:25:13.339Z,32.77
2023-05-11T16:26:13.375Z,32.73
2023-05-11T16:27:13.407Z,32.74
2023-05-11T16:28:13.441Z,32.71
2023-05-11T16:29:13.477Z,32.79
2023-05-11T16:30:23.264Z,32.82
2023-05-11T16:31:13.607Z,32.77
2023-05-11T16:32:13.515Z,32.82
2023-05-11T16:33:13.580Z,32.75
2023-05-11T16:34:13.482Z,32.79
2023-05-11T16:35:13.456Z,32.78
2023-05-11T16:36:13.451Z,32.77
2023-05-11T16:37:13.450Z,32.75
2023-05-11T16:38:13.473Z,32.84
2023-05-11T16:39:13.430Z,32.79
2023-05-11T16:40:13.460Z,32.77
2023-05-11T16:41:13.427Z,32.81
2023-05-11T16:42:13.437Z,32.81
2023-05-11T16:43:13.437Z,32.82
2023-05-11T16:44:13.436Z,32.84
2023-05-11T16:45:13.433Z,32.86
2023-05-11T16:46:13.506Z,32.83
2023-05-11T16:47:13.423Z,32.85
2023-05-11T16:48:13.402Z,32.82
2023-05-11T16:49:13.386Z,32.90
2023-05-11T16:50:13.382Z,32.86
2023-05-11T16:51:13.374Z,32.86
2023-05-11T16:52:13.362Z,32.85
2023-05-11T16:53:13.373Z,32.89
2023-05-11T16:54:13.367Z,32.87
2023-05-11T16:55:13.323Z,32.86
2023-05-11T16:56:13.320Z,32.83
2023-05-11T16:57:13.321Z,32.90
2023-05-11T16:58:13.320Z,32.91
2023-05-11T16:59:13.363Z,32.85
2023-05-11T17:00:13.465Z,32.90
2023-05-11T17:01:13.497Z,32.95
2023-05-11T17:02:13.508Z,32.89
2023-05-11T17:03:13.700Z,32.93
2023-05-11T17:04:13.693Z,32.97
2023-05-11T17:05:13.622Z,32.92
2023-05-11T17:06:13.671Z,33.01
2023-05-11T17:07:13.687Z,32.97
2023-05-11T17:08:13.739Z,32.90
2023-05-11T17:09:13.770Z,32.93
2023-05-11T17:10:13.846Z,32.93
2023-05-11T17:11:13.848Z,32.97
2023-05-11T17:12:13.886Z,32.92
2023-05-11T17:13:13.924Z,32.95
2023-05-11T17:14:13.969Z,32.98
2023-05-11T17:15:14.012Z,32.95
2023-05-11T17:16:14.126Z,32.98
2023-05-11T17:17:14.099Z,33.00
2023-05-11T17:18:14.199Z,32.98
2023-05-11T17:19:14.226Z,33.03
2023-05-11T17:20:14.290Z,33.01
2023-05-11T17:21:14.287Z,33.01
2023-05-11T17:22:14.340Z,33.02
2023-05-11T17:23:14.430Z,33.01
2023-05-11T17:24:14.495Z,32.95
2023-05-11T17:25:14.507Z,32.98
2023-05-11T17:26:14.548Z,33.01
2023-05-11T17:27:14.565Z,33.07
2023-05-11T17:28:14.617Z,33.05
2023-05-11T17:29:14.670Z,33.05
2023-05-11T17:30:14.701Z,33.06
2023-05-11T17:31:14.912Z,33.03
2023-05-11T17:32:14.999Z,33.05
2023-05-11T17:33:15.093Z,33.04
2023-05-11T17:34:15.031Z,33.06
2023-05-11T17:35:14.929Z,33.07
2023-05-11T17:36:14.975Z,33.02
2023-05-11T17:37:30.640Z,33.09
2023-05-11T17:38:15.033Z,33.11
2023-05-11T17:39:14.991Z,33.09
2023-05-11T17:40:14.979Z,33.07
2023-05-11T17:41:14.968Z,33.11
2023-05-11T17:42:15.016Z,33.07
2023-05-11T17:43:14.989Z,33.07
2023-05-11T17:44:14.953Z,33.11
2023-05-11T17:45:14.929Z,33.07
2023-05-11T17:46:14.958Z,33.03
2023-05-11T17:47:14.907Z,33.14
2023-05-11T17:48:14.908Z,33.11
2023-05-11T17:49:14.913Z,33.12
2023-05-11T17:50:14.894Z,33.11
2023-05-11T17:51:14.902Z,33.07
2023-05-11T17:52:14.889Z,33.11
2023-05-11T17:53:14.876Z,33.12
2023-05-11T17:54:14.865Z,33.10
2023-05-11T17:55:14.854Z,33.14
2023-05-11T17:56:14.848Z,33.10
2023-05-11T17:57:14.847Z,33.14
2023-05-11T17:58:14.860Z,33.16
2023-05-11T17:59:14.845Z,33.13
2023-05-11T18:00:14.833Z,33.16
2023-05-11T18:01:14.876Z,33.13
2023-05-11T18:02:14.834Z,33.17
2023-05-11T18:03:14.848Z,33.10
2023-05-11T18:04:14.808Z,33.13
2023-05-11T18:05:14.789Z,33.11
2023-05-11T18:06:14.781Z,33.13
2023-05-11T18:07:14.821Z,33.16
2023-05-11T18:08:14.874Z,33.14
2023-05-11T18:09:14.913Z,33.18
2023-05-11T18:10:14.982Z,33.17
2023-05-11T18:11:15.000Z,33.18
2023-05-11T18:12:15.062Z,33.17
2023-05-11T18:13:17.288Z,33.13
2023-05-11T18:14:15.156Z,33.18
2023-05-11T18:15:15.086Z,33.16
2023-05-11T18:16:15.097Z,33.17
2023-05-11T18:17:15.082Z,33.14
2023-05-11T18:18:15.074Z,33.18
2023-05-11T18:19:15.148Z,33.16
2023-05-11T18:20:15.056Z,33.20
2023-05-11T18:21:15.048Z,33.17
2023-05-11T18:22:15.034Z,33.16
2023-05-11T18:23:15.025Z,33.18
2023-05-11T18:24:15.031Z,33.18
2023-05-11T18:25:15.030Z,33.24